Terminal Aerodrome Forecast
Issued by NWS

Home | Current Version | Previous Version | Graphics & Text | Print | Product List | Glossary On
Versions: 1 2 3 4 5 6 7 8 9 10 11 12 13 14 15 16 17 18 19
982
FTUS43 KABR 242339
TAFATY
TAF
KATY 242339Z 2500/2524 13011KT P6SM BKN100
     FM250200 14011KT P6SM SCT200
     FM250500 14014KT P6SM SCT200 WS020/18040KT
     FM251300 18011KT P6SM SCT250
     FM252200 02009KT P6SM SCT200=

USA.gov is the U.S. government's official web portal to all federal, state and local government web resources and services.